sensor_id;sensor_type;location;lat;lon;timestamp;P1;durP1;ratioP1;P2;durP2;ratioP2
15142;SDS011;7672;50.834;6.286;2023-08-08T00:00:35;5.70;;;2.07;;
15142;SDS011;7672;50.834;6.286;2023-08-08T00:03:02;5.53;;;2.10;;
15142;SDS011;7672;50.834;6.286;2023-08-08T00:05:30;2.10;;;1.90;;
15142;SDS011;7672;50.834;6.286;2023-08-08T00:07:57;3.00;;;2.27;;
15142;SDS011;7672;50.834;6.286;2023-08-08T00:10:24;3.67;;;2.20;;
15142;SDS011;7672;50.834;6.286;2023-08-08T00:12:51;5.23;;;2.10;;
15142;SDS011;7672;50.834;6.286;2023-08-08T00:15:18;4.43;;;2.17;;
15142;SDS011;7672;50.834;6.286;2023-08-08T00:17:46;3.63;;;1.83;;
15142;SDS011;7672;50.834;6.286;2023-08-08T00:20:13;4.37;;;2.40;;
15142;SDS011;7672;50.834;6.286;2023-08-08T00:22:40;4.23;;;2.07;;
15142;SDS011;7672;50.834;6.286;2023-08-08T00:25:08;3.90;;;2.17;;
15142;SDS011;7672;50.834;6.286;2023-08-08T00:27:35;2.83;;;2.10;;
15142;SDS011;7672;50.834;6.286;2023-08-08T00:30:08;2.40;;;1.87;;
15142;SDS011;7672;50.834;6.286;2023-08-08T00:32:38;6.97;;;2.13;;
15142;SDS011;7672;50.834;6.286;2023-08-08T00:35:06;4.73;;;1.93;;
15142;SDS011;7672;50.834;6.286;2023-08-08T00:37:34;2.63;;;1.93;;
15142;SDS011;7672;50.834;6.286;2023-08-08T00:40:01;5.37;;;2.53;;
15142;SDS011;7672;50.834;6.286;2023-08-08T00:42:28;2.50;;;1.93;;
15142;SDS011;7672;50.834;6.286;2023-08-08T00:44:55;2.47;;;1.80;;
15142;SDS011;7672;50.834;6.286;2023-08-08T00:47:30;4.80;;;2.47;;
15142;SDS011;7672;50.834;6.286;2023-08-08T00:50:01;3.47;;;1.80;;
15142;SDS011;7672;50.834;6.286;2023-08-08T00:52:30;2.60;;;1.90;;
15142;SDS011;7672;50.834;6.286;2023-08-08T00:54:58;6.30;;;2.30;;
15142;SDS011;7672;50.834;6.286;2023-08-08T00:57:26;3.50;;;2.07;;
15142;SDS011;7672;50.834;6.286;2023-08-08T00:59:53;2.80;;;2.13;;
15142;SDS011;7672;50.834;6.286;2023-08-08T01:02:20;5.00;;;1.83;;
15142;SDS011;7672;50.834;6.286;2023-08-08T01:04:47;4.43;;;2.20;;
15142;SDS011;7672;50.834;6.286;2023-08-08T01:10:08;3.83;;;2.30;;
15142;SDS011;7672;50.834;6.286;2023-08-08T01:12:45;5.37;;;2.20;;
15142;SDS011;7672;50.834;6.286;2023-08-08T01:15:18;3.73;;;2.00;;
15142;SDS011;7672;50.834;6.286;2023-08-08T01:17:46;2.13;;;1.93;;
15142;SDS011;7672;50.834;6.286;2023-08-08T01:20:14;3.23;;;2.00;;
15142;SDS011;7672;50.834;6.286;2023-08-08T01:22:57;3.63;;;2.57;;
15142;SDS011;7672;50.834;6.286;2023-08-08T01:25:54;8.97;;;2.37;;
15142;SDS011;7672;50.834;6.286;2023-08-08T01:28:25;4.57;;;2.43;;
15142;SDS011;7672;50.834;6.286;2023-08-08T01:30:53;3.63;;;2.30;;
15142;SDS011;7672;50.834;6.286;2023-08-08T01:33:20;5.63;;;2.30;;
15142;SDS011;7672;50.834;6.286;2023-08-08T01:35:56;2.20;;;2.00;;
15142;SDS011;7672;50.834;6.286;2023-08-08T01:38:36;6.87;;;2.10;;
15142;SDS011;7672;50.834;6.286;2023-08-08T01:41:10;3.53;;;1.80;;
15142;SDS011;7672;50.834;6.286;2023-08-08T01:43:37;1.97;;;1.87;;
15142;SDS011;7672;50.834;6.286;2023-08-08T01:46:05;4.97;;;2.07;;
15142;SDS011;7672;50.834;6.286;2023-08-08T01:48:36;2.33;;;1.80;;
15142;SDS011;7672;50.834;6.286;2023-08-08T01:51:03;2.50;;;2.00;;
15142;SDS011;7672;50.834;6.286;2023-08-08T01:53:30;2.17;;;1.77;;
15142;SDS011;7672;50.834;6.286;2023-08-08T01:55:57;3.13;;;2.00;;
15142;SDS011;7672;50.834;6.286;2023-08-08T01:58:24;3.60;;;2.33;;
15142;SDS011;7672;50.834;6.286;2023-08-08T02:00:51;2.27;;;1.90;;
15142;SDS011;7672;50.834;6.286;2023-08-08T02:03:19;5.83;;;2.13;;
15142;SDS011;7672;50.834;6.286;2023-08-08T02:05:46;3.53;;;2.00;;
15142;SDS011;7672;50.834;6.286;2023-08-08T02:08:14;3.33;;;2.30;;
15142;SDS011;7672;50.834;6.286;2023-08-08T02:10:41;3.67;;;2.00;;
15142;SDS011;7672;50.834;6.286;2023-08-08T02:13:08;5.70;;;2.10;;
15142;SDS011;7672;50.834;6.286;2023-08-08T02:15:36;4.43;;;2.03;;
15142;SDS011;7672;50.834;6.286;2023-08-08T02:18:03;3.47;;;2.00;;
15142;SDS011;7672;50.834;6.286;2023-08-08T02:20:32;5.47;;;2.40;;
15142;SDS011;7672;50.834;6.286;2023-08-08T02:22:59;1.70;;;1.60;;
15142;SDS011;7672;50.834;6.286;2023-08-08T02:25:26;3.87;;;1.80;;
15142;SDS011;7672;50.834;6.286;2023-08-08T02:27:54;7.73;;;2.37;;
15142;SDS011;7672;50.834;6.286;2023-08-08T02:30:21;5.50;;;2.13;;
15142;SDS011;7672;50.834;6.286;2023-08-08T02:32:48;7.23;;;2.20;;
15142;SDS011;7672;50.834;6.286;2023-08-08T02:35:16;5.20;;;2.10;;
15142;SDS011;7672;50.834;6.286;2023-08-08T02:37:50;3.87;;;2.03;;
15142;SDS011;7672;50.834;6.286;2023-08-08T02:40:17;5.60;;;1.83;;
15142;SDS011;7672;50.834;6.286;2023-08-08T02:42:45;3.13;;;2.00;;
15142;SDS011;7672;50.834;6.286;2023-08-08T02:45:12;6.30;;;2.00;;
15142;SDS011;7672;50.834;6.286;2023-08-08T02:47:39;6.33;;;2.17;;
15142;SDS011;7672;50.834;6.286;2023-08-08T02:50:06;8.77;;;2.30;;
15142;SDS011;7672;50.834;6.286;2023-08-08T02:52:34;3.33;;;1.97;;
15142;SDS011;7672;50.834;6.286;2023-08-08T02:55:01;2.40;;;1.50;;
15142;SDS011;7672;50.834;6.286;2023-08-08T02:57:29;5.63;;;1.97;;
15142;SDS011;7672;50.834;6.286;2023-08-08T02:59:56;4.43;;;1.90;;
15142;SDS011;7672;50.834;6.286;2023-08-08T03:02:23;5.33;;;1.90;;
15142;SDS011;7672;50.834;6.286;2023-08-08T03:04:51;5.27;;;1.87;;
15142;SDS011;7672;50.834;6.286;2023-08-08T03:07:18;3.93;;;1.90;;
15142;SDS011;7672;50.834;6.286;2023-08-08T03:09:45;3.87;;;2.20;;
15142;SDS011;7672;50.834;6.286;2023-08-08T03:12:13;3.70;;;2.23;;
15142;SDS011;7672;50.834;6.286;2023-08-08T03:14:40;5.80;;;2.43;;
15142;SDS011;7672;50.834;6.286;2023-08-08T03:17:08;2.70;;;1.70;;
15142;SDS011;7672;50.834;6.286;2023-08-08T03:19:35;4.93;;;2.20;;
15142;SDS011;7672;50.834;6.286;2023-08-08T03:22:03;4.83;;;2.00;;
15142;SDS011;7672;50.834;6.286;2023-08-08T03:24:33;3.93;;;2.43;;
15142;SDS011;7672;50.834;6.286;2023-08-08T03:27:00;5.50;;;2.13;;
15142;SDS011;7672;50.834;6.286;2023-08-08T03:29:27;5.97;;;2.90;;
15142;SDS011;7672;50.834;6.286;2023-08-08T03:31:56;4.17;;;1.90;;
15142;SDS011;7672;50.834;6.286;2023-08-08T03:34:26;5.70;;;2.20;;
15142;SDS011;7672;50.834;6.286;2023-08-08T03:36:53;2.70;;;1.83;;
15142;SDS011;7672;50.834;6.286;2023-08-08T03:39:21;3.50;;;2.27;;
15142;SDS011;7672;50.834;6.286;2023-08-08T03:41:48;5.17;;;2.50;;
15142;SDS011;7672;50.834;6.286;2023-08-08T03:44:18;3.23;;;2.30;;
15142;SDS011;7672;50.834;6.286;2023-08-08T03:46:45;4.33;;;2.03;;
15142;SDS011;7672;50.834;6.286;2023-08-08T03:49:13;4.50;;;2.27;;
15142;SDS011;7672;50.834;6.286;2023-08-08T03:51:40;3.60;;;2.33;;
15142;SDS011;7672;50.834;6.286;2023-08-08T03:54:07;2.67;;;2.07;;
15142;SDS011;7672;50.834;6.286;2023-08-08T03:56:35;6.10;;;2.20;;
15142;SDS011;7672;50.834;6.286;2023-08-08T03:59:02;3.40;;;2.20;;
15142;SDS011;7672;50.834;6.286;2023-08-08T04:01:30;5.07;;;1.93;;
15142;SDS011;7672;50.834;6.286;2023-08-08T04:03:57;9.87;;;2.50;;
15142;SDS011;7672;50.834;6.286;2023-08-08T04:06:43;7.00;;;2.60;;
15142;SDS011;7672;50.834;6.286;2023-08-08T04:10:01;4.63;;;2.57;;
15142;SDS011;7672;50.834;6.286;2023-08-08T04:12:50;6.53;;;2.40;;
15142;SDS011;7672;50.834;6.286;2023-08-08T04:18:21;4.50;;;2.50;;
15142;SDS011;7672;50.834;6.286;2023-08-08T04:20:51;3.13;;;2.17;;
15142;SDS011;7672;50.834;6.286;2023-08-08T04:23:54;3.83;;;2.73;;
15142;SDS011;7672;50.834;6.286;2023-08-08T04:26:30;4.37;;;2.63;;
15142;SDS011;7672;50.834;6.286;2023-08-08T04:29:09;7.87;;;2.60;;
15142;SDS011;7672;50.834;6.286;2023-08-08T04:31:45;6.07;;;2.67;;
15142;SDS011;7672;50.834;6.286;2023-08-08T04:34:13;5.57;;;2.60;;
15142;SDS011;7672;50.834;6.286;2023-08-08T04:36:48;8.13;;;2.87;;
15142;SDS011;7672;50.834;6.286;2023-08-08T04:39:17;5.00;;;2.60;;
15142;SDS011;7672;50.834;6.286;2023-08-08T04:41:44;5.90;;;2.30;;
15142;SDS011;7672;50.834;6.286;2023-08-08T04:44:11;4.47;;;2.50;;
15142;SDS011;7672;50.834;6.286;2023-08-08T04:46:41;7.60;;;2.80;;
15142;SDS011;7672;50.834;6.286;2023-08-08T04:49:08;11.17;;;2.87;;
15142;SDS011;7672;50.834;6.286;2023-08-08T04:51:35;7.47;;;3.00;;
15142;SDS011;7672;50.834;6.286;2023-08-08T04:54:02;4.77;;;2.80;;
15142;SDS011;7672;50.834;6.286;2023-08-08T04:56:30;8.27;;;3.20;;
15142;SDS011;7672;50.834;6.286;2023-08-08T04:58:57;6.93;;;2.77;;
15142;SDS011;7672;50.834;6.286;2023-08-08T05:01:24;8.47;;;2.80;;
15142;SDS011;7672;50.834;6.286;2023-08-08T05:03:51;4.90;;;2.60;;
15142;SDS011;7672;50.834;6.286;2023-08-08T05:06:22;6.50;;;2.50;;
15142;SDS011;7672;50.834;6.286;2023-08-08T05:08:51;7.97;;;2.40;;
15142;SDS011;7672;50.834;6.286;2023-08-08T05:11:19;5.97;;;2.50;;
15142;SDS011;7672;50.834;6.286;2023-08-08T05:13:46;8.67;;;2.60;;
15142;SDS011;7672;50.834;6.286;2023-08-08T05:16:14;4.63;;;2.70;;
15142;SDS011;7672;50.834;6.286;2023-08-08T05:18:41;7.17;;;2.90;;
15142;SDS011;7672;50.834;6.286;2023-08-08T05:21:10;5.83;;;2.47;;
15142;SDS011;7672;50.834;6.286;2023-08-08T05:23:37;9.13;;;2.80;;
15142;SDS011;7672;50.834;6.286;2023-08-08T05:26:05;9.40;;;3.07;;
15142;SDS011;7672;50.834;6.286;2023-08-08T05:28:32;9.57;;;2.60;;
15142;SDS011;7672;50.834;6.286;2023-08-08T05:30:59;6.03;;;2.50;;
15142;SDS011;7672;50.834;6.286;2023-08-08T05:33:27;6.17;;;2.73;;
15142;SDS011;7672;50.834;6.286;2023-08-08T05:35:56;8.07;;;2.70;;
15142;SDS011;7672;50.834;6.286;2023-08-08T05:38:23;5.70;;;2.57;;
15142;SDS011;7672;50.834;6.286;2023-08-08T05:40:51;6.03;;;2.40;;
15142;SDS011;7672;50.834;6.286;2023-08-08T05:43:18;8.23;;;2.77;;
15142;SDS011;7672;50.834;6.286;2023-08-08T05:45:47;5.07;;;2.30;;
15142;SDS011;7672;50.834;6.286;2023-08-08T05:48:14;9.17;;;2.60;;
15142;SDS011;7672;50.834;6.286;2023-08-08T05:50:41;8.37;;;2.90;;
15142;SDS011;7672;50.834;6.286;2023-08-08T05:53:08;5.50;;;2.53;;
15142;SDS011;7672;50.834;6.286;2023-08-08T05:55:36;4.80;;;2.10;;
15142;SDS011;7672;50.834;6.286;2023-08-08T05:58:03;9.77;;;2.60;;
15142;SDS011;7672;50.834;6.286;2023-08-08T06:00:30;11.17;;;2.80;;
15142;SDS011;7672;50.834;6.286;2023-08-08T06:02:58;8.73;;;2.60;;
15142;SDS011;7672;50.834;6.286;2023-08-08T06:05:25;5.80;;;2.37;;
15142;SDS011;7672;50.834;6.286;2023-08-08T06:07:52;12.37;;;2.50;;
15142;SDS011;7672;50.834;6.286;2023-08-08T06:10:21;7.83;;;2.90;;
15142;SDS011;7672;50.834;6.286;2023-08-08T06:12:49;11.97;;;2.80;;
15142;SDS011;7672;50.834;6.286;2023-08-08T06:15:16;5.93;;;2.60;;
15142;SDS011;7672;50.834;6.286;2023-08-08T06:17:43;6.23;;;2.60;;
15142;SDS011;7672;50.834;6.286;2023-08-08T06:20:10;6.40;;;2.75;;
15142;SDS011;7672;50.834;6.286;2023-08-08T06:22:37;6.43;;;2.67;;
15142;SDS011;7672;50.834;6.286;2023-08-08T06:25:05;13.40;;;2.70;;
15142;SDS011;7672;50.834;6.286;2023-08-08T06:27:33;6.93;;;2.23;;
15142;SDS011;7672;50.834;6.286;2023-08-08T06:30:00;8.48;;;3.08;;
15142;SDS011;7672;50.834;6.286;2023-08-08T06:32:27;5.93;;;2.60;;
15142;SDS011;7672;50.834;6.286;2023-08-08T06:34:55;10.45;;;2.83;;
15142;SDS011;7672;50.834;6.286;2023-08-08T06:37:22;5.20;;;2.67;;
15142;SDS011;7672;50.834;6.286;2023-08-08T06:39:49;8.93;;;3.63;;
15142;SDS011;7672;50.834;6.286;2023-08-08T06:42:35;6.90;;;2.80;;
15142;SDS011;7672;50.834;6.286;2023-08-08T06:45:21;6.88;;;3.08;;
15142;SDS011;7672;50.834;6.286;2023-08-08T06:47:48;5.75;;;2.92;;
15142;SDS011;7672;50.834;6.286;2023-08-08T06:50:15;8.00;;;3.10;;
15142;SDS011;7672;50.834;6.286;2023-08-08T06:52:45;5.68;;;3.25;;
15142;SDS011;7672;50.834;6.286;2023-08-08T06:55:12;11.23;;;3.17;;
15142;SDS011;7672;50.834;6.286;2023-08-08T06:57:39;9.55;;;3.60;;
15142;SDS011;7672;50.834;6.286;2023-08-08T07:00:07;9.65;;;3.65;;
15142;SDS011;7672;50.834;6.286;2023-08-08T07:02:35;7.30;;;3.10;;
15142;SDS011;7672;50.834;6.286;2023-08-08T07:05:02;12.75;;;3.95;;
15142;SDS011;7672;50.834;6.286;2023-08-08T07:07:30;6.18;;;4.05;;
15142;SDS011;7672;50.834;6.286;2023-08-08T07:09:59;8.30;;;3.70;;
15142;SDS011;7672;50.834;6.286;2023-08-08T07:12:26;8.93;;;3.60;;
15142;SDS011;7672;50.834;6.286;2023-08-08T07:14:53;8.90;;;3.88;;
15142;SDS011;7672;50.834;6.286;2023-08-08T07:17:21;9.98;;;3.85;;
15142;SDS011;7672;50.834;6.286;2023-08-08T07:19:48;9.98;;;3.40;;
15142;SDS011;7672;50.834;6.286;2023-08-08T07:22:15;8.70;;;3.83;;
15142;SDS011;7672;50.834;6.286;2023-08-08T07:24:42;7.25;;;3.90;;
15142;SDS011;7672;50.834;6.286;2023-08-08T07:27:09;8.03;;;3.40;;
15142;SDS011;7672;50.834;6.286;2023-08-08T07:29:36;10.00;;;3.85;;
15142;SDS011;7672;50.834;6.286;2023-08-08T07:32:03;7.80;;;4.55;;
15142;SDS011;7672;50.834;6.286;2023-08-08T07:34:31;8.45;;;4.05;;
15142;SDS011;7672;50.834;6.286;2023-08-08T07:36:59;7.73;;;4.13;;
15142;SDS011;7672;50.834;6.286;2023-08-08T07:39:26;9.73;;;4.07;;
15142;SDS011;7672;50.834;6.286;2023-08-08T07:41:54;7.80;;;3.90;;
15142;SDS011;7672;50.834;6.286;2023-08-08T07:44:21;9.35;;;3.90;;
15142;SDS011;7672;50.834;6.286;2023-08-08T07:46:48;11.35;;;4.32;;
15142;SDS011;7672;50.834;6.286;2023-08-08T07:49:15;7.05;;;4.07;;
15142;SDS011;7672;50.834;6.286;2023-08-08T07:51:42;5.18;;;3.70;;
15142;SDS011;7672;50.834;6.286;2023-08-08T07:54:09;7.78;;;4.22;;
15142;SDS011;7672;50.834;6.286;2023-08-08T07:56:37;9.35;;;3.88;;
15142;SDS011;7672;50.834;6.286;2023-08-08T07:59:04;9.43;;;4.05;;
15142;SDS011;7672;50.834;6.286;2023-08-08T08:01:31;7.90;;;3.15;;
15142;SDS011;7672;50.834;6.286;2023-08-08T08:03:59;6.50;;;4.05;;
15142;SDS011;7672;50.834;6.286;2023-08-08T08:06:26;5.13;;;3.35;;
15142;SDS011;7672;50.834;6.286;2023-08-08T08:08:53;5.13;;;3.75;;
15142;SDS011;7672;50.834;6.286;2023-08-08T08:11:20;7.85;;;3.53;;
15142;SDS011;7672;50.834;6.286;2023-08-08T08:13:48;8.40;;;3.72;;
15142;SDS011;7672;50.834;6.286;2023-08-08T08:16:15;7.13;;;3.63;;
15142;SDS011;7672;50.834;6.286;2023-08-08T08:18:42;7.22;;;3.58;;
15142;SDS011;7672;50.834;6.286;2023-08-08T08:21:09;4.82;;;3.53;;
15142;SDS011;7672;50.834;6.286;2023-08-08T08:23:36;5.38;;;3.22;;
15142;SDS011;7672;50.834;6.286;2023-08-08T08:26:03;7.60;;;3.63;;
15142;SDS011;7672;50.834;6.286;2023-08-08T08:28:30;7.70;;;3.50;;
15142;SDS011;7672;50.834;6.286;2023-08-08T08:31:03;6.55;;;3.10;;
15142;SDS011;7672;50.834;6.286;2023-08-08T08:33:31;6.53;;;2.72;;
15142;SDS011;7672;50.834;6.286;2023-08-08T08:35:58;6.68;;;3.05;;
15142;SDS011;7672;50.834;6.286;2023-08-08T08:38:25;5.57;;;2.63;;
15142;SDS011;7672;50.834;6.286;2023-08-08T08:40:53;7.35;;;2.80;;
15142;SDS011;7672;50.834;6.286;2023-08-08T08:43:22;4.63;;;2.53;;
15142;SDS011;7672;50.834;6.286;2023-08-08T08:45:51;6.82;;;3.00;;
15142;SDS011;7672;50.834;6.286;2023-08-08T08:48:20;6.60;;;2.78;;
15142;SDS011;7672;50.834;6.286;2023-08-08T08:50:49;6.00;;;3.25;;
15142;SDS011;7672;50.834;6.286;2023-08-08T08:53:18;5.75;;;2.72;;
15142;SDS011;7672;50.834;6.286;2023-08-08T08:55:47;7.03;;;3.17;;
15142;SDS011;7672;50.834;6.286;2023-08-08T08:58:15;8.15;;;3.40;;
15142;SDS011;7672;50.834;6.286;2023-08-08T09:00:45;8.48;;;3.28;;
15142;SDS011;7672;50.834;6.286;2023-08-08T09:03:14;6.47;;;3.53;;
15142;SDS011;7672;50.834;6.286;2023-08-08T09:05:43;4.65;;;3.15;;
15142;SDS011;7672;50.834;6.286;2023-08-08T09:08:11;6.38;;;3.20;;
15142;SDS011;7672;50.834;6.286;2023-08-08T09:10:39;4.30;;;3.20;;
15142;SDS011;7672;50.834;6.286;2023-08-08T09:13:06;4.03;;;3.28;;
15142;SDS011;7672;50.834;6.286;2023-08-08T09:15:34;4.95;;;3.40;;
15142;SDS011;7672;50.834;6.286;2023-08-08T09:18:01;6.40;;;3.60;;
15142;SDS011;7672;50.834;6.286;2023-08-08T09:20:29;7.30;;;3.70;;
15142;SDS011;7672;50.834;6.286;2023-08-08T09:22:56;7.18;;;3.47;;
15142;SDS011;7672;50.834;6.286;2023-08-08T09:25:24;3.30;;;2.70;;
15142;SDS011;7672;50.834;6.286;2023-08-08T09:27:53;7.03;;;2.97;;
15142;SDS011;7672;50.834;6.286;2023-08-08T09:30:20;6.85;;;3.03;;
15142;SDS011;7672;50.834;6.286;2023-08-08T09:32:48;5.78;;;3.08;;
15142;SDS011;7672;50.834;6.286;2023-08-08T09:35:16;4.78;;;2.90;;
15142;SDS011;7672;50.834;6.286;2023-08-08T09:37:43;5.70;;;2.95;;
15142;SDS011;7672;50.834;6.286;2023-08-08T09:40:10;4.50;;;2.63;;
15142;SDS011;7672;50.834;6.286;2023-08-08T09:42:39;5.15;;;3.20;;
15142;SDS011;7672;50.834;6.286;2023-08-08T09:45:08;5.75;;;3.13;;
15142;SDS011;7672;50.834;6.286;2023-08-08T09:47:36;4.10;;;2.85;;
15142;SDS011;7672;50.834;6.286;2023-08-08T09:50:05;5.47;;;2.78;;
15142;SDS011;7672;50.834;6.286;2023-08-08T09:52:34;6.13;;;2.85;;
15142;SDS011;7672;50.834;6.286;2023-08-08T09:55:05;5.72;;;3.13;;
15142;SDS011;7672;50.834;6.286;2023-08-08T09:57:33;4.63;;;2.53;;
15142;SDS011;7672;50.834;6.286;2023-08-08T10:00:01;6.95;;;2.78;;
15142;SDS011;7672;50.834;6.286;2023-08-08T10:02:32;3.65;;;2.17;;
15142;SDS011;7672;50.834;6.286;2023-08-08T10:04:59;6.25;;;2.65;;
15142;SDS011;7672;50.834;6.286;2023-08-08T10:07:31;3.75;;;2.50;;
15142;SDS011;7672;50.834;6.286;2023-08-08T10:09:58;5.40;;;2.85;;
15142;SDS011;7672;50.834;6.286;2023-08-08T10:12:25;4.53;;;2.70;;
15142;SDS011;7672;50.834;6.286;2023-08-08T10:14:53;6.35;;;2.50;;
15142;SDS011;7672;50.834;6.286;2023-08-08T10:17:22;4.68;;;2.40;;
15142;SDS011;7672;50.834;6.286;2023-08-08T10:19:50;5.25;;;2.72;;
15142;SDS011;7672;50.834;6.286;2023-08-08T10:22:22;3.67;;;2.67;;
15142;SDS011;7672;50.834;6.286;2023-08-08T10:24:52;5.93;;;3.03;;
15142;SDS011;7672;50.834;6.286;2023-08-08T10:27:30;3.67;;;2.58;;
15142;SDS011;7672;50.834;6.286;2023-08-08T10:30:03;5.72;;;2.80;;
15142;SDS011;7672;50.834;6.286;2023-08-08T10:32:42;3.83;;;2.50;;
15142;SDS011;7672;50.834;6.286;2023-08-08T10:35:14;6.03;;;2.55;;
15142;SDS011;7672;50.834;6.286;2023-08-08T10:37:51;5.88;;;2.65;;
15142;SDS011;7672;50.834;6.286;2023-08-08T10:40:20;5.82;;;2.47;;
15142;SDS011;7672;50.834;6.286;2023-08-08T10:42:47;4.10;;;2.38;;
15142;SDS011;7672;50.834;6.286;2023-08-08T10:45:15;7.25;;;2.50;;
15142;SDS011;7672;50.834;6.286;2023-08-08T10:47:43;3.90;;;2.30;;
15142;SDS011;7672;50.834;6.286;2023-08-08T10:50:14;5.78;;;2.65;;
15142;SDS011;7672;50.834;6.286;2023-08-08T10:55:56;7.00;;;2.97;;
15142;SDS011;7672;50.834;6.286;2023-08-08T10:58:13;5.30;;;3.08;;
15142;SDS011;7672;50.834;6.286;2023-08-08T11:00:46;4.82;;;2.65;;
15142;SDS011;7672;50.834;6.286;2023-08-08T11:03:14;4.53;;;2.75;;
15142;SDS011;7672;50.834;6.286;2023-08-08T11:05:41;3.40;;;2.20;;
15142;SDS011;7672;50.834;6.286;2023-08-08T11:08:13;5.32;;;2.63;;
15142;SDS011;7672;50.834;6.286;2023-08-08T11:10:41;3.88;;;2.60;;
15142;SDS011;7672;50.834;6.286;2023-08-08T11:13:08;7.20;;;2.00;;
15142;SDS011;7672;50.834;6.286;2023-08-08T11:15:36;6.53;;;2.65;;
15142;SDS011;7672;50.834;6.286;2023-08-08T11:18:05;5.47;;;2.47;;
15142;SDS011;7672;50.834;6.286;2023-08-08T11:20:33;3.92;;;2.38;;
15142;SDS011;7672;50.834;6.286;2023-08-08T11:23:02;3.95;;;2.30;;
15142;SDS011;7672;50.834;6.286;2023-08-08T11:25:38;4.53;;;2.10;;
15142;SDS011;7672;50.834;6.286;2023-08-08T11:28:11;7.88;;;2.60;;
15142;SDS011;7672;50.834;6.286;2023-08-08T11:30:40;7.30;;;2.60;;
15142;SDS011;7672;50.834;6.286;2023-08-08T11:33:14;5.35;;;2.10;;
15142;SDS011;7672;50.834;6.286;2023-08-08T11:35:44;5.38;;;2.38;;
15142;SDS011;7672;50.834;6.286;2023-08-08T11:38:15;7.53;;;2.17;;
15142;SDS011;7672;50.834;6.286;2023-08-08T11:40:44;5.22;;;1.88;;
15142;SDS011;7672;50.834;6.286;2023-08-08T11:43:11;3.85;;;1.80;;
15142;SDS011;7672;50.834;6.286;2023-08-08T11:45:40;7.07;;;2.17;;
15142;SDS011;7672;50.834;6.286;2023-08-08T11:48:09;6.53;;;2.17;;
15142;SDS011;7672;50.834;6.286;2023-08-08T11:50:36;3.22;;;2.05;;
15142;SDS011;7672;50.834;6.286;2023-08-08T11:53:04;4.97;;;2.35;;
15142;SDS011;7672;50.834;6.286;2023-08-08T11:55:32;4.72;;;2.10;;
15142;SDS011;7672;50.834;6.286;2023-08-08T11:58:00;4.20;;;1.90;;
15142;SDS011;7672;50.834;6.286;2023-08-08T12:00:28;4.88;;;1.98;;
15142;SDS011;7672;50.834;6.286;2023-08-08T12:03:00;4.93;;;1.90;;
15142;SDS011;7672;50.834;6.286;2023-08-08T12:05:31;5.88;;;2.30;;
15142;SDS011;7672;50.834;6.286;2023-08-08T12:08:06;3.95;;;2.03;;
15142;SDS011;7672;50.834;6.286;2023-08-08T12:10:35;3.47;;;2.17;;
15142;SDS011;7672;50.834;6.286;2023-08-08T12:13:02;4.75;;;2.38;;
15142;SDS011;7672;50.834;6.286;2023-08-08T12:15:31;3.60;;;2.03;;
15142;SDS011;7672;50.834;6.286;2023-08-08T12:18:03;4.60;;;2.15;;
15142;SDS011;7672;50.834;6.286;2023-08-08T12:20:31;5.15;;;2.10;;
15142;SDS011;7672;50.834;6.286;2023-08-08T12:22:59;4.13;;;2.20;;
15142;SDS011;7672;50.834;6.286;2023-08-08T12:25:26;3.03;;;2.00;;
15142;SDS011;7672;50.834;6.286;2023-08-08T12:27:54;4.60;;;2.17;;
15142;SDS011;7672;50.834;6.286;2023-08-08T12:30:21;5.20;;;2.17;;
15142;SDS011;7672;50.834;6.286;2023-08-08T12:32:49;3.15;;;1.90;;
15142;SDS011;7672;50.834;6.286;2023-08-08T12:35:16;4.72;;;2.10;;
15142;SDS011;7672;50.834;6.286;2023-08-08T12:37:43;4.28;;;2.17;;
15142;SDS011;7672;50.834;6.286;2023-08-08T12:40:10;4.25;;;2.03;;
15142;SDS011;7672;50.834;6.286;2023-08-08T12:42:38;4.68;;;2.03;;
15142;SDS011;7672;50.834;6.286;2023-08-08T12:45:06;2.78;;;2.00;;
15142;SDS011;7672;50.834;6.286;2023-08-08T12:47:34;4.20;;;2.20;;
15142;SDS011;7672;50.834;6.286;2023-08-08T12:50:07;3.47;;;1.80;;
15142;SDS011;7672;50.834;6.286;2023-08-08T12:52:34;5.68;;;2.22;;
15142;SDS011;7672;50.834;6.286;2023-08-08T12:55:02;4.75;;;2.22;;
15142;SDS011;7672;50.834;6.286;2023-08-08T12:57:30;4.35;;;1.75;;
15142;SDS011;7672;50.834;6.286;2023-08-08T12:59:58;3.63;;;1.80;;
15142;SDS011;7672;50.834;6.286;2023-08-08T13:02:25;3.03;;;2.00;;
15142;SDS011;7672;50.834;6.286;2023-08-08T13:04:53;4.25;;;2.25;;
15142;SDS011;7672;50.834;6.286;2023-08-08T13:07:20;6.25;;;2.17;;
15142;SDS011;7672;50.834;6.286;2023-08-08T13:09:47;3.38;;;1.92;;
15142;SDS011;7672;50.834;6.286;2023-08-08T13:12:14;6.18;;;2.40;;
15142;SDS011;7672;50.834;6.286;2023-08-08T13:14:41;4.00;;;2.00;;
15142;SDS011;7672;50.834;6.286;2023-08-08T13:17:08;4.07;;;1.90;;
15142;SDS011;7672;50.834;6.286;2023-08-08T13:19:36;5.70;;;2.40;;
15142;SDS011;7672;50.834;6.286;2023-08-08T13:22:03;4.10;;;2.00;;
15142;SDS011;7672;50.834;6.286;2023-08-08T13:24:30;7.65;;;1.90;;
15142;SDS011;7672;50.834;6.286;2023-08-08T13:26:58;5.20;;;2.28;;
15142;SDS011;7672;50.834;6.286;2023-08-08T13:29:25;7.60;;;2.15;;
15142;SDS011;7672;50.834;6.286;2023-08-08T13:31:52;5.05;;;2.03;;
15142;SDS011;7672;50.834;6.286;2023-08-08T13:34:19;8.27;;;2.40;;
15142;SDS011;7672;50.834;6.286;2023-08-08T13:36:46;4.72;;;2.10;;
15142;SDS011;7672;50.834;6.286;2023-08-08T13:39:16;4.50;;;2.17;;
15142;SDS011;7672;50.834;6.286;2023-08-08T13:41:46;4.80;;;2.15;;
15142;SDS011;7672;50.834;6.286;2023-08-08T13:44:13;6.30;;;1.88;;
15142;SDS011;7672;50.834;6.286;2023-08-08T13:46:40;10.52;;;2.40;;
15142;SDS011;7672;50.834;6.286;2023-08-08T13:49:07;6.82;;;2.85;;
15142;SDS011;7672;50.834;6.286;2023-08-08T13:51:34;4.32;;;2.13;;
15142;SDS011;7672;50.834;6.286;2023-08-08T13:54:01;3.33;;;2.15;;
15142;SDS011;7672;50.834;6.286;2023-08-08T13:56:28;6.28;;;2.25;;
15142;SDS011;7672;50.834;6.286;2023-08-08T13:58:55;7.28;;;2.15;;
15142;SDS011;7672;50.834;6.286;2023-08-08T14:01:22;4.95;;;2.00;;
15142;SDS011;7672;50.834;6.286;2023-08-08T14:03:50;3.83;;;1.73;;
15142;SDS011;7672;50.834;6.286;2023-08-08T14:06:17;3.80;;;1.98;;
15142;SDS011;7672;50.834;6.286;2023-08-08T14:08:45;3.25;;;1.90;;
15142;SDS011;7672;50.834;6.286;2023-08-08T14:11:13;4.22;;;2.00;;
15142;SDS011;7672;50.834;6.286;2023-08-08T14:13:40;7.13;;;2.17;;
15142;SDS011;7672;50.834;6.286;2023-08-08T14:16:07;4.47;;;2.08;;
15142;SDS011;7672;50.834;6.286;2023-08-08T14:18:35;3.17;;;2.10;;
15142;SDS011;7672;50.834;6.286;2023-08-08T14:21:02;4.80;;;1.90;;
15142;SDS011;7672;50.834;6.286;2023-08-08T14:23:31;4.20;;;1.92;;
15142;SDS011;7672;50.834;6.286;2023-08-08T14:25:58;4.72;;;2.03;;
15142;SDS011;7672;50.834;6.286;2023-08-08T14:28:25;5.80;;;1.77;;
15142;SDS011;7672;50.834;6.286;2023-08-08T14:30:54;6.80;;;2.08;;
15142;SDS011;7672;50.834;6.286;2023-08-08T14:33:21;4.53;;;1.73;;
15142;SDS011;7672;50.834;6.286;2023-08-08T14:35:49;6.82;;;2.45;;
15142;SDS011;7672;50.834;6.286;2023-08-08T14:38:16;4.82;;;2.38;;
15142;SDS011;7672;50.834;6.286;2023-08-08T14:40:43;7.03;;;2.28;;
15142;SDS011;7672;50.834;6.286;2023-08-08T14:43:10;3.97;;;1.90;;
15142;SDS011;7672;50.834;6.286;2023-08-08T14:45:38;3.05;;;1.95;;
15142;SDS011;7672;50.834;6.286;2023-08-08T14:48:05;4.70;;;1.98;;
15142;SDS011;7672;50.834;6.286;2023-08-08T14:50:33;4.63;;;1.98;;
15142;SDS011;7672;50.834;6.286;2023-08-08T14:53:00;4.90;;;1.58;;
15142;SDS011;7672;50.834;6.286;2023-08-08T14:55:28;4.88;;;2.20;;
15142;SDS011;7672;50.834;6.286;2023-08-08T14:57:56;4.65;;;2.35;;
15142;SDS011;7672;50.834;6.286;2023-08-08T15:00:23;3.55;;;1.90;;
15142;SDS011;7672;50.834;6.286;2023-08-08T15:02:50;6.55;;;2.33;;
15142;SDS011;7672;50.834;6.286;2023-08-08T15:05:17;7.25;;;2.35;;
15142;SDS011;7672;50.834;6.286;2023-08-08T15:07:44;2.70;;;1.85;;
15142;SDS011;7672;50.834;6.286;2023-08-08T15:10:12;8.15;;;2.72;;
15142;SDS011;7672;50.834;6.286;2023-08-08T15:12:39;5.40;;;2.15;;
15142;SDS011;7672;50.834;6.286;2023-08-08T15:15:07;6.53;;;2.35;;
15142;SDS011;7672;50.834;6.286;2023-08-08T15:17:35;5.43;;;2.20;;